Terminal Aerodrome Forecast
Issued by NWS

Home | Current Version | Previous Version | Text Only | Print | Product List | Glossary On
Versions: 1 2 3 4 5 6 7 8 9 10 11 12 13 14 15 16 17 18 19 20 21 22 23 24 25 26 27 28 29 30 31 32
000
FTAK31 PANC 262328
TAFASD
TAF
PASD 262328Z 2700/2724 25011G18KT P6SM FEW030 SCT040 BKN060
     FM271800 32012G22KT P6SM SCT025 BKN060
     FM272200 33018G30KT P6SM FEW025 SCT050 BKN200
      AMD LTD TO CLD VIS AND WIND=

USA.gov is the U.S. government's official web portal to all federal, state and local government web resources and services.